Time;durP1;ratioP1;P1;durP2;ratioP2;P2;SDS_P1;SDS_P2;PMS_P1;PMS_P2;Temp;Humidity;BMP_temperature;BMP_pressure;BME280_temperature;BME280_humidity;BME280_pressure;Samples;Min_cycle;Max_cycle;Signal;HPM_P1;HPM_P2
2023/03/07 00:00:00;;;;;;;10.73;6.65;;;5.70;99.90;;;;;;4192303;28;20101;-73
2023/03/07 00:02:01;;;;;;;14.13;7.72;;;5.70;99.90;;;;;;4190145;28;20045;-72
2023/03/07 00:04:02;;;;;;;11.10;6.55;;;5.70;99.90;;;;;;4186077;28;20123;-73
2023/03/07 00:06:05;;;;;;;11.70;7.28;;;5.70;99.90;;;;;;4189612;28;20036;-73
2023/03/07 00:08:06;;;;;;;12.20;6.40;;;5.70;99.90;;;;;;4191407;28;20059;-73
2023/03/07 00:10:07;;;;;;;10.30;6.28;;;5.70;99.90;;;;;;4190129;28;20036;-74
2023/03/07 00:12:09;;;;;;;9.45;6.35;;;5.80;99.90;;;;;;4190861;28;20090;-73
2023/03/07 00:14:10;;;;;;;10.83;6.27;;;5.80;99.90;;;;;;4192358;28;20041;-73
2023/03/07 00:16:16;;;;;;;9.77;5.88;;;5.70;99.90;;;;;;4186968;28;20296;-73
2023/03/07 00:18:17;;;;;;;9.40;5.53;;;5.70;99.90;;;;;;4189381;28;20071;-73
2023/03/07 00:20:18;;;;;;;9.40;5.22;;;5.70;99.90;;;;;;4192558;28;20077;-73
2023/03/07 00:22:18;;;;;;;7.60;5.20;;;5.70;99.90;;;;;;4189096;28;20101;-72
2023/03/07 00:24:19;;;;;;;9.63;5.65;;;5.70;99.90;;;;;;4193111;28;20411;-72
2023/03/07 00:26:22;;;;;;;7.38;4.97;;;5.70;99.90;;;;;;4190282;28;20033;-72
2023/03/07 00:28:23;;;;;;;7.40;4.70;;;5.70;99.90;;;;;;4195443;28;20101;-72
2023/03/07 00:30:23;;;;;;;6.60;4.70;;;5.70;99.90;;;;;;4191711;28;20040;-69
2023/03/07 00:32:24;;;;;;;9.35;4.78;;;5.70;99.90;;;;;;4189090;28;20375;-70
2023/03/07 00:34:25;;;;;;;9.43;4.75;;;5.70;99.90;;;;;;4192816;28;20037;-69
2023/03/07 00:36:26;;;;;;;7.40;4.10;;;5.70;99.90;;;;;;4189622;28;20066;-68
2023/03/07 00:38:28;;;;;;;6.53;4.30;;;5.60;99.90;;;;;;4190552;28;20475;-70
2023/03/07 00:40:29;;;;;;;5.70;3.78;;;5.60;99.90;;;;;;4192403;28;20537;-70
2023/03/07 00:42:29;;;;;;;5.53;3.97;;;5.60;99.90;;;;;;4192408;28;20048;-69
2023/03/07 00:44:31;;;;;;;5.82;3.60;;;5.60;99.90;;;;;;4189092;28;20099;-70
2023/03/07 00:46:32;;;;;;;5.43;3.87;;;5.60;99.90;;;;;;4186568;28;20029;-70
2023/03/07 00:48:37;;;;;;;6.20;3.95;;;5.60;99.90;;;;;;4191778;28;20271;-70
2023/03/07 00:50:38;;;;;;;7.72;4.35;;;5.70;99.90;;;;;;4186353;28;20086;-70
2023/03/07 00:52:38;;;;;;;5.25;3.85;;;5.70;99.90;;;;;;4191793;28;20491;-70
2023/03/07 00:54:39;;;;;;;6.32;3.97;;;5.70;99.90;;;;;;4183494;28;20116;-70
2023/03/07 00:56:40;;;;;;;7.00;4.20;;;5.70;99.90;;;;;;4188752;28;20037;-70
2023/03/07 00:58:41;;;;;;;5.80;3.70;;;5.70;99.90;;;;;;4190282;28;20041;-70
2023/03/07 01:00:41;;;;;;;8.48;4.40;;;5.70;99.90;;;;;;4188487;28;20029;-71
2023/03/07 01:02:42;;;;;;;7.18;3.70;;;5.70;99.90;;;;;;4196425;28;20601;-70
2023/03/07 01:04:43;;;;;;;6.70;4.07;;;5.70;99.90;;;;;;4192213;28;20040;-70
2023/03/07 01:06:43;;;;;;;6.72;4.40;;;5.70;99.90;;;;;;4188666;28;20074;-72
2023/03/07 01:08:44;;;;;;;7.43;4.28;;;5.70;99.90;;;;;;4183772;28;22717;-70
2023/03/07 01:10:47;;;;;;;6.10;3.67;;;5.70;99.90;;;;;;4190951;28;20189;-70
2023/03/07 01:12:48;;;;;;;6.80;4.22;;;5.70;99.90;;;;;;4191540;28;20481;-71
2023/03/07 01:14:51;;;;;;;5.10;3.72;;;5.70;99.90;;;;;;4192033;28;20119;-71
2023/03/07 01:16:51;;;;;;;9.38;3.83;;;5.60;99.90;;;;;;4185575;28;20123;-70
2023/03/07 01:18:55;;;;;;;7.35;3.60;;;5.60;99.90;;;;;;4192028;28;20033;-70
2023/03/07 01:20:55;;;;;;;5.00;3.08;;;5.70;99.90;;;;;;4184280;28;20094;-69
2023/03/07 01:22:56;;;;;;;5.30;3.20;;;5.60;99.90;;;;;;4191870;28;20533;-70
2023/03/07 01:24:56;;;;;;;7.20;3.15;;;5.60;99.90;;;;;;4187973;28;20468;-71
2023/03/07 01:26:57;;;;;;;5.22;2.70;;;5.60;99.90;;;;;;4186706;28;20383;-70
2023/03/07 01:29:00;;;;;;;4.20;3.03;;;5.60;99.90;;;;;;4188833;28;20044;-70
2023/03/07 01:31:01;;;;;;;3.92;2.80;;;5.60;99.90;;;;;;4186019;28;20490;-71
2023/03/07 01:33:02;;;;;;;3.17;2.30;;;5.60;99.90;;;;;;4191022;28;20487;-70
2023/03/07 01:35:03;;;;;;;4.65;2.30;;;5.50;99.90;;;;;;4194656;28;20032;-70
2023/03/07 01:37:04;;;;;;;2.90;2.05;;;5.50;99.90;;;;;;4188732;28;20044;-70
2023/03/07 01:39:12;;;;;;;3.00;1.80;;;5.50;99.90;;;;;;4195141;28;20059;-70
2023/03/07 01:41:15;;;;;;;2.50;2.10;;;5.50;99.90;;;;;;4191018;28;20070;-71
2023/03/07 01:43:30;;;;;;;2.17;1.80;;;5.50;99.90;;;;;;4194933;28;20045;-70
2023/03/07 01:45:34;;;;;;;2.50;1.90;;;5.50;99.90;;;;;;4190539;28;20121;-70
2023/03/07 01:47:34;;;;;;;2.35;1.98;;;5.50;99.90;;;;;;4191893;28;20115;-72
2023/03/07 01:49:39;;;;;;;1.75;1.52;;;5.50;99.90;;;;;;4187053;28;20055;-72
2023/03/07 01:51:43;;;;;;;2.80;1.50;;;5.50;99.90;;;;;;4194596;28;20021;-72
2023/03/07 01:53:45;;;;;;;1.85;1.50;;;5.50;99.90;;;;;;4195126;28;20032;-72
2023/03/07 01:55:46;;;;;;;2.63;1.70;;;5.50;99.90;;;;;;4189065;28;20045;-72
2023/03/07 01:57:49;;;;;;;2.00;1.80;;;5.50;99.90;;;;;;4189795;28;20032;-72
2023/03/07 01:59:54;;;;;;;4.05;2.17;;;5.50;99.90;;;;;;4193983;28;20482;-71
2023/03/07 02:02:00;;;;;;;2.30;2.00;;;5.50;99.90;;;;;;4190333;28;20048;-72
2023/03/07 02:04:02;;;;;;;2.72;2.38;;;5.50;99.90;;;;;;4193523;28;20052;-72
2023/03/07 02:06:08;;;;;;;2.45;2.25;;;5.50;99.90;;;;;;4193584;28;20036;-72
2023/03/07 02:08:12;;;;;;;2.08;1.83;;;5.50;99.90;;;;;;4193028;28;20105;-72
2023/03/07 02:10:15;;;;;;;3.45;2.47;;;5.50;99.90;;;;;;4193515;28;20036;-73
2023/03/07 02:12:16;;;;;;;2.72;2.20;;;5.40;99.90;;;;;;4195533;28;20041;-72
2023/03/07 02:14:16;;;;;;;3.42;2.55;;;5.50;99.90;;;;;;4195084;28;20043;-72
2023/03/07 02:16:17;;;;;;;2.50;2.30;;;5.40;99.90;;;;;;4191492;28;20033;-72
2023/03/07 02:18:22;;;;;;;2.80;2.50;;;5.40;99.90;;;;;;4194289;28;20036;-72
2023/03/07 02:20:42;;;;;;;3.50;2.20;;;5.40;99.90;;;;;;4192841;28;20025;-71
2023/03/07 02:22:43;;;;;;;2.95;2.47;;;5.40;99.90;;;;;;4194523;28;20468;-72
2023/03/07 02:25:12;;;;;;;4.00;2.67;;;5.40;99.90;;;;;;4191682;28;20037;-72
2023/03/07 02:27:14;;;;;;;2.78;2.10;;;5.40;99.90;;;;;;4155921;28;20037;-72
2023/03/07 02:29:14;;;;;;;2.80;2.22;;;5.40;99.90;;;;;;4193282;28;20078;-72
2023/03/07 02:31:15;;;;;;;3.22;2.30;;;5.40;99.90;;;;;;4192528;28;20455;-72
2023/03/07 02:33:16;;;;;;;3.20;2.30;;;5.40;99.90;;;;;;4193752;28;20048;-72
2023/03/07 02:35:21;;;;;;;2.92;2.28;;;5.40;99.90;;;;;;4193007;28;20074;-72
2023/03/07 02:37:26;;;;;;;2.65;2.20;;;5.40;99.90;;;;;;4191825;28;20494;-71
2023/03/07 02:39:29;;;;;;;2.75;2.30;;;5.30;99.90;;;;;;4195601;28;20060;-71
2023/03/07 02:41:31;;;;;;;2.28;2.08;;;5.40;99.90;;;;;;4193717;28;20048;-71
2023/03/07 02:43:32;;;;;;;;;;;5.40;99.90;;;;;;4193629;28;20036;-72
2023/03/07 02:45:33;;;;;;;2.03;1.80;;;5.40;99.90;;;;;;4190945;28;19912;-72
2023/03/07 02:47:33;;;;;;;2.53;2.22;;;5.40;99.90;;;;;;4186853;28;20093;-72
2023/03/07 02:49:35;;;;;;;2.97;2.47;;;5.40;99.90;;;;;;4193269;28;20588;-72
2023/03/07 02:51:35;;;;;;;3.15;2.22;;;5.30;99.90;;;;;;4191955;28;20040;-72
2023/03/07 02:53:36;;;;;;;2.20;1.90;;;5.30;99.90;;;;;;4195314;28;20051;-72
2023/03/07 02:55:36;;;;;;;3.38;2.50;;;5.30;99.90;;;;;;4191233;28;20036;-72
2023/03/07 02:57:37;;;;;;;3.63;2.50;;;5.30;99.90;;;;;;4193153;28;20123;-72
2023/03/07 02:59:38;;;;;;;2.63;2.28;;;5.30;99.90;;;;;;4192701;28;20036;-73
2023/03/07 03:01:38;;;;;;;2.80;2.22;;;5.30;99.90;;;;;;4194660;28;20089;-73
2023/03/07 03:03:39;;;;;;;2.58;2.13;;;5.30;99.90;;;;;;4195062;28;20036;-73
2023/03/07 03:05:40;;;;;;;3.72;2.10;;;5.30;99.90;;;;;;4192128;28;20044;-73
2023/03/07 03:07:40;;;;;;;3.92;2.40;;;5.30;99.90;;;;;;4188454;28;20033;-73
2023/03/07 03:09:41;;;;;;;2.45;2.08;;;5.30;99.90;;;;;;4195535;28;20033;-73
2023/03/07 03:11:41;;;;;;;3.03;2.33;;;5.40;99.90;;;;;;4192213;28;20056;-73
2023/03/07 03:13:42;;;;;;;3.55;2.53;;;5.30;99.90;;;;;;4192316;28;20039;-73
2023/03/07 03:15:43;;;;;;;2.95;2.30;;;5.30;99.90;;;;;;4189998;28;20036;-73
2023/03/07 03:17:44;;;;;;;2.40;2.00;;;5.30;99.90;;;;;;4190696;28;20056;-73
2023/03/07 03:19:44;;;;;;;3.95;2.47;;;5.30;99.90;;;;;;4195187;28;20576;-73
2023/03/07 03:21:45;;;;;;;2.72;2.22;;;5.30;99.90;;;;;;4190822;28;20412;-73
2023/03/07 03:23:45;;;;;;;2.55;2.00;;;5.30;99.90;;;;;;4193607;28;20037;-73
2023/03/07 03:25:56;;;;;;;2.53;2.00;;;5.30;99.90;;;;;;4191331;28;20190;-73
2023/03/07 03:27:57;;;;;;;3.15;2.50;;;5.30;99.90;;;;;;4190085;28;20052;-72
2023/03/07 03:29:57;;;;;;;3.83;2.60;;;5.30;99.90;;;;;;4193363;28;20047;-72
2023/03/07 03:31:58;;;;;;;2.63;2.15;;;5.30;99.90;;;;;;4191682;28;20047;-73
2023/03/07 03:33:59;;;;;;;3.42;2.60;;;5.30;99.90;;;;;;4194005;28;20070;-73
2023/03/07 03:36:06;;;;;;;3.35;2.55;;;5.30;99.90;;;;;;4190933;28;20532;-73
2023/03/07 03:38:07;;;;;;;3.25;2.47;;;5.20;99.90;;;;;;4183702;28;20526;-73
2023/03/07 03:40:13;;;;;;;2.90;2.47;;;5.30;99.90;;;;;;4189645;28;20025;-75
2023/03/07 03:42:13;;;;;;;3.88;2.72;;;5.20;99.90;;;;;;4191246;28;20044;-73
2023/03/07 03:44:14;;;;;;;3.58;2.63;;;5.20;99.90;;;;;;4193558;28;20033;-72
2023/03/07 03:46:15;;;;;;;3.47;2.53;;;5.30;99.90;;;;;;4186140;28;20506;-73
2023/03/07 03:48:16;;;;;;;4.28;2.53;;;5.30;99.90;;;;;;4187346;28;20593;-73
2023/03/07 03:50:17;;;;;;;3.33;2.63;;;5.20;99.90;;;;;;4192453;28;20037;-72
2023/03/07 03:52:17;;;;;;;3.80;2.60;;;5.30;99.90;;;;;;4193099;28;20040;-73
2023/03/07 03:54:18;;;;;;;3.92;2.55;;;5.30;99.90;;;;;;4192403;28;20525;-73
2023/03/07 03:56:21;;;;;;;5.55;2.90;;;5.30;99.90;;;;;;4190139;28;20535;-73
2023/03/07 03:58:22;;;;;;;5.55;3.40;;;5.30;99.90;;;;;;4186595;28;20044;-73
2023/03/07 04:00:23;;;;;;;4.32;3.17;;;5.30;99.90;;;;;;4191647;28;20684;-73
2023/03/07 04:02:23;;;;;;;5.88;3.33;;;5.30;99.90;;;;;;4191133;28;20483;-73
2023/03/07 04:04:24;;;;;;;4.63;3.15;;;5.40;99.90;;;;;;4189971;28;20045;-72
2023/03/07 04:06:27;;;;;;;3.92;3.08;;;5.40;99.90;;;;;;4188871;28;20501;-73
2023/03/07 04:08:28;;;;;;;5.57;3.78;;;5.40;99.90;;;;;;4189468;28;20033;-73
2023/03/07 04:10:28;;;;;;;5.57;3.45;;;5.40;99.90;;;;;;4194525;28;20045;-72
2023/03/07 04:12:29;;;;;;;5.03;3.40;;;5.40;99.90;;;;;;4192731;28;20031;-73
2023/03/07 04:14:29;;;;;;;4.72;3.53;;;5.40;99.90;;;;;;4191352;28;20067;-73
2023/03/07 04:16:30;;;;;;;4.93;3.65;;;5.40;99.90;;;;;;4190155;28;20472;-73
2023/03/07 04:18:32;;;;;;;5.30;3.40;;;5.40;99.90;;;;;;4191689;28;20029;-73
2023/03/07 04:20:33;;;;;;;5.03;3.33;;;5.40;99.90;;;;;;4191185;28;20499;-73
2023/03/07 04:22:34;;;;;;;4.20;3.30;;;5.40;99.90;;;;;;4193402;28;20068;-73
2023/03/07 04:24:34;;;;;;;6.28;4.07;;;5.40;99.90;;;;;;4192126;28;20170;-73
2023/03/07 04:26:35;;;;;;;7.50;4.82;;;5.40;99.90;;;;;;4189991;28;20036;-73
2023/03/07 04:28:42;;;;;;;7.25;4.63;;;5.40;99.90;;;;;;4189779;28;20035;-73
2023/03/07 04:30:43;;;;;;;8.30;4.60;;;5.40;99.90;;;;;;4193009;28;20032;-73
2023/03/07 04:32:44;;;;;;;4.90;3.42;;;5.40;99.90;;;;;;4192643;28;20041;-73
2023/03/07 04:34:44;;;;;;;4.40;3.88;;;5.50;99.90;;;;;;4191963;28;20477;-73
2023/03/07 04:36:45;;;;;;;5.57;4.35;;;5.50;99.90;;;;;;4189551;28;20387;-74
2023/03/07 04:38:47;;;;;;;6.63;3.78;;;5.50;99.90;;;;;;4191750;28;20031;-73
2023/03/07 04:40:47;;;;;;;5.65;4.00;;;5.50;99.90;;;;;;4185944;28;20506;-73
2023/03/07 04:42:48;;;;;;;5.50;4.00;;;5.50;99.90;;;;;;4191450;28;20040;-74
2023/03/07 04:44:48;;;;;;;7.55;4.57;;;5.60;99.90;;;;;;4197913;28;20036;-73
2023/03/07 04:46:49;;;;;;;5.00;3.92;;;5.50;99.90;;;;;;4187891;28;20471;-73
2023/03/07 04:48:50;;;;;;;5.15;3.95;;;5.50;99.90;;;;;;4190984;28;20438;-72
2023/03/07 04:50:51;;;;;;;5.80;3.95;;;5.60;99.90;;;;;;4190946;28;20116;-72
2023/03/07 04:52:51;;;;;;;5.50;4.35;;;5.60;99.90;;;;;;4190844;28;20044;-73
2023/03/07 04:54:52;;;;;;;8.27;4.85;;;5.60;99.90;;;;;;4189291;28;20029;-74
2023/03/07 04:56:52;;;;;;;7.97;5.25;;;5.60;99.90;;;;;;4188285;28;20025;-73
2023/03/07 04:58:53;;;;;;;6.75;4.75;;;5.60;99.90;;;;;;4189124;28;20045;-73
2023/03/07 05:00:55;;;;;;;6.57;4.88;;;5.60;99.90;;;;;;4190924;28;20115;-73
2023/03/07 05:02:57;;;;;;;6.68;4.82;;;5.60;99.90;;;;;;4187551;28;20048;-73
2023/03/07 05:04:58;;;;;;;5.80;4.53;;;5.60;99.90;;;;;;4183432;28;20520;-73
2023/03/07 05:06:58;;;;;;;7.55;5.32;;;5.70;99.90;;;;;;4187479;28;20259;-72
2023/03/07 05:08:59;;;;;;;8.50;5.63;;;5.60;99.90;;;;;;4190500;28;20036;-73
2023/03/07 05:11:00;;;;;;;6.40;4.55;;;5.60;99.90;;;;;;4189474;28;20037;-74
2023/03/07 05:13:01;;;;;;;7.00;4.32;;;5.60;99.90;;;;;;4191873;28;20444;-73
2023/03/07 05:15:01;;;;;;;7.70;4.88;;;5.60;99.90;;;;;;4190812;28;20037;-73
2023/03/07 05:17:02;;;;;;;6.32;4.57;;;5.60;99.90;;;;;;4186995;28;20036;-74
2023/03/07 05:19:03;;;;;;;7.45;5.43;;;5.60;99.90;;;;;;4194559;28;20033;-73
2023/03/07 05:21:03;;;;;;;9.43;5.97;;;5.60;99.90;;;;;;4192929;28;20036;-73
2023/03/07 05:23:04;;;;;;;8.65;5.72;;;5.60;99.90;;;;;;4191487;28;20095;-73
2023/03/07 05:25:05;;;;;;;8.10;5.47;;;5.50;99.90;;;;;;4188988;28;20485;-73
2023/03/07 05:27:06;;;;;;;13.68;6.70;;;5.50;99.90;;;;;;4181319;28;20456;-74
2023/03/07 05:29:07;;;;;;;9.02;6.18;;;5.50;99.90;;;;;;4191565;28;20048;-73
2023/03/07 05:31:07;;;;;;;10.65;6.45;;;5.60;99.90;;;;;;4190899;28;20391;-73
2023/03/07 05:33:08;;;;;;;8.23;6.43;;;5.50;99.90;;;;;;4192607;28;20045;-73
2023/03/07 05:35:10;;;;;;;9.35;6.18;;;5.50;99.90;;;;;;4191191;28;20461;-73
2023/03/07 05:37:11;;;;;;;;;;;5.50;99.90;;;;;;4188345;28;20040;-74
2023/03/07 05:39:14;;;;;;;10.27;6.60;;;5.50;99.90;;;;;;4192316;28;19939;-74
2023/03/07 05:41:15;;;;;;;10.35;6.45;;;5.50;99.90;;;;;;4190367;28;20038;-73
2023/03/07 05:43:15;;;;;;;9.98;6.60;;;5.50;99.90;;;;;;4189830;28;20098;-73
2023/03/07 05:45:16;;;;;;;9.30;6.40;;;5.50;99.90;;;;;;4188778;28;20028;-74
2023/03/07 05:47:16;;;;;;;10.13;6.55;;;5.50;99.90;;;;;;4188041;28;20057;-73
2023/03/07 05:49:17;;;;;;;11.23;6.90;;;5.50;99.90;;;;;;4192622;28;20368;-74
2023/03/07 05:51:18;;;;;;;11.23;6.75;;;5.50;99.90;;;;;;4188802;28;20033;-74
2023/03/07 05:53:18;;;;;;;11.40;6.47;;;5.50;99.90;;;;;;4190421;28;20045;-71
2023/03/07 05:55:19;;;;;;;9.43;6.05;;;5.50;99.90;;;;;;4189860;28;20051;-71
2023/03/07 05:57:21;;;;;;;11.00;7.32;;;5.50;99.90;;;;;;4187745;28;20077;-72
2023/03/07 05:59:21;;;;;;;9.68;6.90;;;5.50;99.90;;;;;;4187481;28;20028;-70
2023/03/07 06:01:22;;;;;;;10.48;6.70;;;5.50;99.90;;;;;;4190921;28;20035;-71
2023/03/07 06:03:22;;;;;;;10.68;6.50;;;5.50;99.90;;;;;;4191741;28;20036;-72
2023/03/07 06:05:23;;;;;;;9.93;6.70;;;5.50;99.90;;;;;;4189160;28;20230;-74
2023/03/07 06:07:23;;;;;;;8.80;6.65;;;5.40;99.90;;;;;;4181954;28;20816;-74
2023/03/07 06:09:24;;;;;;;10.93;6.32;;;5.50;99.90;;;;;;4183996;28;20028;-74
2023/03/07 06:11:25;;;;;;;11.75;7.13;;;5.40;99.90;;;;;;4186112;28;20063;-73
2023/03/07 06:13:26;;;;;;;9.35;6.55;;;5.50;99.90;;;;;;4188090;28;20025;-73
2023/03/07 06:15:27;;;;;;;9.38;6.75;;;5.40;99.90;;;;;;4187292;28;20035;-73
2023/03/07 06:17:28;;;;;;;10.88;7.80;;;5.40;99.90;;;;;;4184416;28;20040;-74
2023/03/07 06:19:29;;;;;;;9.85;6.95;;;5.40;99.90;;;;;;4187903;28;20128;-74
2023/03/07 06:21:30;;;;;;;10.85;6.97;;;5.50;99.90;;;;;;4187498;28;20620;-73
2023/03/07 06:23:33;;;;;;;11.02;7.70;;;5.40;99.90;;;;;;4181757;28;20080;-73
2023/03/07 06:25:34;;;;;;;10.20;6.80;;;5.40;99.90;;;;;;4189456;28;20036;-74
2023/03/07 06:27:35;;;;;;;10.55;6.80;;;5.40;99.90;;;;;;4189050;28;20040;-73
2023/03/07 06:29:36;;;;;;;10.30;6.60;;;5.40;99.90;;;;;;4190223;28;20163;-74
2023/03/07 06:31:37;;;;;;;13.10;7.43;;;5.40;99.90;;;;;;4189367;28;20904;-74
2023/03/07 06:33:37;;;;;;;10.15;7.22;;;5.40;99.90;;;;;;4190941;28;20131;-73
2023/03/07 06:35:39;;;;;;;11.65;6.55;;;5.40;99.90;;;;;;4188266;28;20429;-73
2023/03/07 06:37:40;;;;;;;16.80;8.10;;;5.40;99.90;;;;;;4185744;28;20427;-73
2023/03/07 06:39:40;;;;;;;10.52;7.05;;;5.40;99.90;;;;;;4188809;28;20040;-74
2023/03/07 06:41:41;;;;;;;11.50;7.32;;;5.40;99.90;;;;;;4186113;28;20119;-74
2023/03/07 06:43:42;;;;;;;9.95;6.70;;;5.40;99.90;;;;;;4190134;28;20463;-75
2023/03/07 06:45:42;;;;;;;11.38;7.80;;;5.40;99.90;;;;;;4187606;28;20037;-74
2023/03/07 06:47:43;;;;;;;9.80;6.90;;;5.40;99.90;;;;;;4186754;28;20102;-75
2023/03/07 06:49:43;;;;;;;11.27;7.40;;;5.40;99.90;;;;;;4183252;28;20036;-74
2023/03/07 06:51:44;;;;;;;10.57;7.00;;;5.40;99.90;;;;;;4186058;28;20387;-75
2023/03/07 06:53:44;;;;;;;11.10;7.60;;;5.50;99.90;;;;;;4190825;28;20110;-74
2023/03/07 06:55:49;;;;;;;12.45;6.85;;;5.50;99.90;;;;;;4189787;28;20028;-74
2023/03/07 06:57:50;;;;;;;10.95;7.80;;;5.50;99.90;;;;;;4189029;28;20142;-73
2023/03/07 06:59:50;;;;;;;11.75;7.95;;;5.50;99.90;;;;;;4190954;28;20071;-71
2023/03/07 07:01:51;;;;;;;12.13;7.70;;;5.50;99.90;;;;;;4186914;28;20029;-73
2023/03/07 07:03:51;;;;;;;14.68;8.18;;;5.50;99.90;;;;;;4188440;28;20147;-73
2023/03/07 07:05:52;;;;;;;13.00;8.38;;;5.40;99.90;;;;;;4190284;28;20094;-73
2023/03/07 07:07:52;;;;;;;12.90;7.55;;;5.40;99.90;;;;;;4188073;28;20483;-74
2023/03/07 07:09:53;;;;;;;15.32;8.07;;;5.40;99.90;;;;;;4188920;28;20386;-75
2023/03/07 07:11:54;;;;;;;10.80;7.90;;;5.50;99.90;;;;;;4189070;28;20454;-74
2023/03/07 07:13:54;;;;;;;11.98;7.57;;;5.50;99.90;;;;;;4188293;28;21167;-74
2023/03/07 07:15:55;;;;;;;11.73;7.35;;;5.50;99.90;;;;;;4188092;28;20039;-73
2023/03/07 07:17:56;;;;;;;11.23;7.47;;;5.50;99.90;;;;;;4186752;28;20441;-74
2023/03/07 07:19:56;;;;;;;11.95;7.90;;;5.50;99.90;;;;;;4187732;28;20029;-74
2023/03/07 07:21:57;;;;;;;10.02;6.30;;;5.50;99.90;;;;;;4185424;28;20033;-74
2023/03/07 07:23:58;;;;;;;11.25;7.35;;;5.50;99.90;;;;;;4186861;28;20106;-74
2023/03/07 07:25:59;;;;;;;11.65;7.85;;;5.50;99.90;;;;;;4186706;28;20226;-74
2023/03/07 07:27:59;;;;;;;13.23;7.72;;;5.50;99.90;;;;;;4186906;28;20041;-74
2023/03/07 07:30:00;;;;;;;16.73;8.85;;;5.50;99.90;;;;;;4187865;28;20479;-74
2023/03/07 07:32:00;;;;;;;10.35;7.10;;;5.50;99.90;;;;;;4187661;28;20036;-73
2023/03/07 07:34:01;;;;;;;12.48;8.07;;;5.50;99.90;;;;;;4189226;28;20041;-73
2023/03/07 07:36:02;;;;;;;13.32;7.45;;;5.50;99.90;;;;;;4187569;28;20048;-74
2023/03/07 07:38:03;;;;;;;12.70;7.72;;;5.50;99.90;;;;;;4185966;28;20090;-74
2023/03/07 07:40:04;;;;;;;10.57;6.90;;;5.50;99.90;;;;;;4188063;28;20499;-74
2023/03/07 07:42:04;;;;;;;10.45;7.53;;;5.50;99.90;;;;;;4185902;28;20384;-74
2023/03/07 07:44:05;;;;;;;9.18;6.75;;;5.60;99.90;;;;;;4188407;28;20043;-74
2023/03/07 07:46:06;;;;;;;12.27;8.13;;;5.60;99.90;;;;;;4184097;28;20060;-74
2023/03/07 07:48:06;;;;;;;12.10;7.70;;;5.60;99.90;;;;;;4179479;28;20628;-74
2023/03/07 07:50:08;;;;;;;12.48;8.32;;;5.60;99.90;;;;;;4187558;28;20987;-73
2023/03/07 07:52:08;;;;;;;13.05;7.40;;;5.50;99.90;;;;;;4189774;28;20051;-74
2023/03/07 07:54:09;;;;;;;10.10;6.88;;;5.50;99.90;;;;;;4187281;28;20451;-74
2023/03/07 07:56:10;;;;;;;12.65;7.57;;;5.60;99.90;;;;;;4186695;28;20787;-74
2023/03/07 07:58:10;;;;;;;13.02;7.43;;;5.60;99.90;;;;;;4177992;28;20075;-74
2023/03/07 08:00:12;;;;;;;12.18;7.30;;;5.60;99.90;;;;;;4186896;28;20051;-74
2023/03/07 08:02:12;;;;;;;10.93;6.95;;;5.60;99.90;;;;;;4189570;28;20056;-74
2023/03/07 08:04:13;;;;;;;12.48;7.60;;;5.60;99.90;;;;;;4187976;28;20053;-74
2023/03/07 08:06:18;;;;;;;12.65;7.13;;;5.50;99.90;;;;;;4185930;28;20067;-74
2023/03/07 08:08:19;;;;;;;10.52;7.03;;;5.60;99.90;;;;;;4186488;28;20032;-73
2023/03/07 08:10:20;;;;;;;11.80;7.45;;;5.60;99.90;;;;;;4185557;28;20108;-73
2023/03/07 08:12:21;;;;;;;13.23;7.68;;;5.60;99.90;;;;;;4187487;28;20046;-73
2023/03/07 08:14:21;;;;;;;12.60;6.90;;;5.60;99.90;;;;;;4186556;28;20414;-73
2023/03/07 08:16:23;;;;;;;8.40;4.45;;;5.60;99.90;;;;;;4184668;28;20037;-73
2023/03/07 08:18:23;;;;;;;5.97;4.43;;;5.50;99.90;;;;;;4177655;28;20036;-74
2023/03/07 08:20:24;;;;;;;6.22;4.47;;;5.40;99.90;;;;;;4187731;28;20145;-73
2023/03/07 08:22:25;;;;;;;5.25;3.63;;;5.40;99.90;;;;;;4189131;28;20041;-73
2023/03/07 08:24:26;;;;;;;5.07;3.63;;;5.30;99.90;;;;;;4189554;28;20078;-74
2023/03/07 08:26:26;;;;;;;4.03;3.08;;;5.30;99.90;;;;;;4184591;28;20089;-74
2023/03/07 08:28:27;;;;;;;4.32;3.08;;;5.20;99.90;;;;;;4187481;28;20035;-73
2023/03/07 08:30:29;;;;;;;3.95;3.10;;;5.20;99.90;;;;;;4187541;28;20021;-74
2023/03/07 08:32:29;;;;;;;3.67;2.30;;;5.10;99.90;;;;;;4185366;28;20124;-74
2023/03/07 08:34:32;;;;;;;5.45;2.50;;;5.10;99.90;;;;;;4188478;28;20925;-74
2023/03/07 08:36:33;;;;;;;3.30;2.60;;;5.10;99.90;;;;;;4186438;28;20052;-73
2023/03/07 08:38:34;;;;;;;5.53;2.40;;;5.10;99.90;;;;;;4187761;28;20060;-73
2023/03/07 08:40:34;;;;;;;4.60;2.65;;;5.10;99.90;;;;;;4186905;28;20040;-73
2023/03/07 08:42:35;;;;;;;2.92;2.25;;;5.00;99.90;;;;;;4182327;28;20118;-73
2023/03/07 08:44:36;;;;;;;3.15;2.22;;;5.00;99.90;;;;;;4187969;28;20036;-73
2023/03/07 08:46:36;;;;;;;2.72;1.85;;;4.90;99.90;;;;;;4186694;28;20368;-74
2023/03/07 08:48:37;;;;;;;2.40;1.88;;;4.90;99.90;;;;;;4185171;28;20040;-73
2023/03/07 08:50:38;;;;;;;2.17;1.60;;;4.80;99.90;;;;;;4184355;28;20076;-73
2023/03/07 08:52:41;;;;;;;2.38;1.70;;;4.70;99.90;;;;;;4189716;28;20475;-73
2023/03/07 08:54:41;;;;;;;1.83;1.50;;;4.50;99.90;;;;;;4187281;28;20131;-73
2023/03/07 08:56:42;;;;;;;2.10;1.45;;;4.50;99.90;;;;;;4186911;28;20071;-73
2023/03/07 08:58:43;;;;;;;2.00;1.40;;;4.40;99.90;;;;;;4189964;28;20048;-72
2023/03/07 09:00:44;;;;;;;1.88;1.40;;;4.40;99.90;;;;;;4189521;28;20047;-73
2023/03/07 09:02:45;;;;;;;2.10;1.55;;;4.30;99.90;;;;;;4188855;28;20049;-73
2023/03/07 09:04:46;;;;;;;1.33;1.20;;;4.40;99.90;;;;;;4186823;28;20490;-74
2023/03/07 09:06:46;;;;;;;1.88;1.67;;;4.30;99.90;;;;;;4185961;28;20036;-73
2023/03/07 09:08:48;;;;;;;1.55;1.40;;;4.30;99.90;;;;;;4189080;28;20048;-73
2023/03/07 09:10:48;;;;;;;1.70;1.60;;;4.30;99.90;;;;;;4187482;28;20040;-73
2023/03/07 09:12:51;;;;;;;1.70;1.30;;;4.30;99.90;;;;;;4188553;28;20467;-73
2023/03/07 09:14:53;;;;;;;1.98;1.45;;;4.30;99.90;;;;;;4188557;28;20081;-74
2023/03/07 09:16:54;;;;;;;1.55;1.45;;;4.30;99.90;;;;;;4187072;28;20071;-73
2023/03/07 09:18:54;;;;;;;1.80;1.50;;;4.40;99.90;;;;;;4186398;28;20033;-74
2023/03/07 09:20:58;;;;;;;2.17;1.52;;;4.40;99.90;;;;;;4184676;28;20041;-73
2023/03/07 09:22:59;;;;;;;1.50;1.38;;;4.40;99.90;;;;;;4187798;28;20041;-73
2023/03/07 09:25:00;;;;;;;2.00;1.33;;;4.40;99.90;;;;;;4188409;28;20478;-73
2023/03/07 09:27:00;;;;;;;3.15;1.77;;;4.40;99.90;;;;;;4186916;28;20502;-73
2023/03/07 09:29:01;;;;;;;1.58;1.40;;;4.40;99.90;;;;;;4188365;28;20040;-74
2023/03/07 09:31:09;;;;;;;2.00;1.65;;;4.40;99.90;;;;;;4186130;28;20045;-73
2023/03/07 09:33:09;;;;;;;1.90;1.40;;;4.50;99.90;;;;;;4188182;28;20394;-74
2023/03/07 09:35:10;;;;;;;2.10;1.60;;;4.50;99.90;;;;;;4185554;28;20084;-74
2023/03/07 09:37:11;;;;;;;2.55;1.80;;;4.50;99.90;;;;;;4188252;28;22711;-73
2023/03/07 09:39:13;;;;;;;2.22;1.83;;;4.40;99.90;;;;;;4188703;28;20043;-73
2023/03/07 09:41:32;;;;;;;1.95;1.52;;;4.40;99.90;;;;;;4187252;28;20350;-73
2023/03/07 09:43:53;;;;;;;2.25;1.70;;;4.40;99.90;;;;;;4186948;28;20052;-73
2023/03/07 09:46:27;;;;;;;1.60;1.50;;;4.40;99.90;;;;;;4186113;28;20043;-73
2023/03/07 09:48:53;;;;;;;2.22;1.50;;;4.50;99.90;;;;;;4186152;28;20534;-73
2023/03/07 09:51:10;;;;;;;1.52;1.42;;;4.40;99.90;;;;;;4184760;28;20444;-73
2023/03/07 09:53:34;;;;;;;2.63;2.03;;;4.40;99.90;;;;;;4185215;28;20059;-73
2023/03/07 09:55:34;;;;;;;1.58;1.48;;;4.40;99.90;;;;;;4187789;28;20402;-72
2023/03/07 09:57:49;;;;;;;1.88;1.67;;;4.50;99.90;;;;;;4192030;28;20115;-73
2023/03/07 09:59:55;;;;;;;1.90;1.70;;;4.50;99.90;;;;;;4191553;28;20033;-73
2023/03/07 10:02:22;;;;;;;1.85;1.65;;;4.50;99.90;;;;;;4189091;28;20036;-73
2023/03/07 10:04:42;;;;;;;1.77;1.40;;;4.50;99.90;;;;;;4189773;28;20056;-72
2023/03/07 10:06:48;;;;;;;1.80;1.52;;;4.60;99.90;;;;;;4188621;28;20041;-73
2023/03/07 10:08:49;;;;;;;2.67;1.80;;;4.60;99.90;;;;;;4191562;28;20089;-74
2023/03/07 10:11:07;;;;;;;4.00;1.92;;;4.60;99.90;;;;;;4182750;28;20096;-74
2023/03/07 10:13:45;;;;;;;1.50;1.38;;;4.60;99.90;;;;;;4191306;28;20048;-73
2023/03/07 10:15:50;;;;;;;2.53;1.80;;;4.60;99.90;;;;;;4189365;28;20051;-74
2023/03/07 10:18:16;;;;;;;1.90;1.52;;;4.60;99.90;;;;;;4189353;28;20032;-73
2023/03/07 10:20:36;;;;;;;2.03;1.70;;;4.60;99.90;;;;;;4190056;28;20052;-73
2023/03/07 10:23:24;;;;;;;2.28;1.80;;;4.70;99.90;;;;;;4187895;28;20084;-74
2023/03/07 10:25:28;;;;;;;2.63;1.80;;;4.70;99.90;;;;;;4189729;28;20071;-74
2023/03/07 10:27:31;;;;;;;1.90;1.60;;;4.70;99.90;;;;;;4190988;28;20028;-73
2023/03/07 10:29:35;;;;;;;;;;;4.70;99.90;;;;;;4192731;28;20033;-73
2023/03/07 10:31:40;;;;;;;1.63;1.52;;;4.60;99.90;;;;;;4188457;28;19998;-74
2023/03/07 10:33:44;;;;;;;2.40;1.70;;;4.70;99.90;;;;;;4191752;28;20048;-74
2023/03/07 10:36:01;;;;;;;2.58;1.88;;;4.60;99.90;;;;;;4188645;28;20403;-73
2023/03/07 10:38:17;;;;;;;2.80;2.17;;;4.60;99.90;;;;;;4189998;28;20044;-74
2023/03/07 10:40:23;;;;;;;2.40;1.80;;;4.60;99.90;;;;;;4182797;28;20462;-73
2023/03/07 10:42:25;;;;;;;2.22;1.85;;;4.60;99.90;;;;;;4190282;28;20067;-74
2023/03/07 10:44:27;;;;;;;;;;;4.60;99.90;;;;;;4191649;28;20032;-74